sensor_id;sensor_type;location;lat;lon;timestamp;pressure;altitude;pressure_sealevel;temperature;humidity
19086;BME280;9675;51.538;6.728;2023-02-16T00:01:51;102118.78;;;8.17;100.00
19086;BME280;9675;51.538;6.728;2023-02-16T00:04:21;102109.91;;;8.13;100.00
19086;BME280;9675;51.538;6.728;2023-02-16T00:06:49;102114.94;;;8.12;100.00
19086;BME280;9675;51.538;6.728;2023-02-16T00:09:18;102113.03;;;8.09;100.00
19086;BME280;9675;51.538;6.728;2023-02-16T00:11:47;102104.44;;;8.09;100.00
19086;BME280;9675;51.538;6.728;2023-02-16T00:14:36;102105.88;;;8.05;100.00
19086;BME280;9675;51.538;6.728;2023-02-16T00:17:04;102108.19;;;8.02;100.00
19086;BME280;9675;51.538;6.728;2023-02-16T00:19:36;102111.25;;;7.98;100.00
19086;BME280;9675;51.538;6.728;2023-02-16T00:22:05;102110.28;;;7.96;100.00
19086;BME280;9675;51.538;6.728;2023-02-16T00:24:33;102111.03;;;7.95;100.00
19086;BME280;9675;51.538;6.728;2023-02-16T00:27:00;102105.91;;;7.95;100.00
19086;BME280;9675;51.538;6.728;2023-02-16T00:29:30;102110.00;;;7.93;100.00
19086;BME280;9675;51.538;6.728;2023-02-16T00:32:02;102111.56;;;7.91;100.00
19086;BME280;9675;51.538;6.728;2023-02-16T00:34:33;102113.88;;;7.88;100.00
19086;BME280;9675;51.538;6.728;2023-02-16T00:37:03;102104.41;;;7.87;100.00
19086;BME280;9675;51.538;6.728;2023-02-16T00:39:31;102092.00;;;7.82;100.00
19086;BME280;9675;51.538;6.728;2023-02-16T00:42:02;102100.44;;;7.81;100.00
19086;BME280;9675;51.538;6.728;2023-02-16T00:44:35;102100.19;;;7.78;100.00
19086;BME280;9675;51.538;6.728;2023-02-16T00:47:17;102100.84;;;7.75;100.00
19086;BME280;9675;51.538;6.728;2023-02-16T00:49:45;102095.44;;;7.72;100.00
19086;BME280;9675;51.538;6.728;2023-02-16T00:52:31;102095.44;;;7.72;100.00
19086;BME280;9675;51.538;6.728;2023-02-16T00:55:00;102098.81;;;7.71;100.00
19086;BME280;9675;51.538;6.728;2023-02-16T00:57:33;102101.25;;;7.69;100.00
19086;BME280;9675;51.538;6.728;2023-02-16T01:00:06;102098.31;;;7.65;100.00
19086;BME280;9675;51.538;6.728;2023-02-16T01:02:35;102096.53;;;7.64;100.00
19086;BME280;9675;51.538;6.728;2023-02-16T01:05:03;102094.63;;;7.61;100.00
19086;BME280;9675;51.538;6.728;2023-02-16T01:07:30;102089.09;;;7.57;100.00
19086;BME280;9675;51.538;6.728;2023-02-16T01:10:16;102093.97;;;7.54;100.00
19086;BME280;9675;51.538;6.728;2023-02-16T01:13:01;102090.66;;;7.55;100.00
19086;BME280;9675;51.538;6.728;2023-02-16T01:15:28;102096.53;;;7.54;100.00
19086;BME280;9675;51.538;6.728;2023-02-16T01:17:57;102085.94;;;7.49;100.00
19086;BME280;9675;51.538;6.728;2023-02-16T01:20:25;102095.28;;;7.49;100.00
19086;BME280;9675;51.538;6.728;2023-02-16T01:22:53;102088.13;;;7.45;100.00
19086;BME280;9675;51.538;6.728;2023-02-16T01:25:20;102094.75;;;7.43;100.00
19086;BME280;9675;51.538;6.728;2023-02-16T01:27:48;102095.44;;;7.40;100.00
19086;BME280;9675;51.538;6.728;2023-02-16T01:30:19;102096.97;;;7.38;100.00
19086;BME280;9675;51.538;6.728;2023-02-16T01:32:47;102089.78;;;7.34;100.00
19086;BME280;9675;51.538;6.728;2023-02-16T01:35:19;102090.41;;;7.32;100.00
19086;BME280;9675;51.538;6.728;2023-02-16T01:37:47;102093.75;;;7.31;100.00
19086;BME280;9675;51.538;6.728;2023-02-16T01:40:35;102090.94;;;7.28;100.00
19086;BME280;9675;51.538;6.728;2023-02-16T01:43:12;102079.44;;;7.22;100.00
19086;BME280;9675;51.538;6.728;2023-02-16T01:45:49;102094.03;;;7.23;100.00
19086;BME280;9675;51.538;6.728;2023-02-16T01:48:21;102089.66;;;7.22;100.00
19086;BME280;9675;51.538;6.728;2023-02-16T01:51:00;102085.22;;;7.20;100.00
19086;BME280;9675;51.538;6.728;2023-02-16T01:53:34;102089.06;;;7.15;100.00
19086;BME280;9675;51.538;6.728;2023-02-16T01:56:12;102088.91;;;7.13;100.00
19086;BME280;9675;51.538;6.728;2023-02-16T01:58:46;102080.19;;;7.11;100.00
19086;BME280;9675;51.538;6.728;2023-02-16T02:01:41;102082.53;;;7.08;100.00
19086;BME280;9675;51.538;6.728;2023-02-16T02:04:20;102085.84;;;7.07;100.00
19086;BME280;9675;51.538;6.728;2023-02-16T02:07:16;102093.53;;;7.07;100.00
19086;BME280;9675;51.538;6.728;2023-02-16T02:09:56;102077.91;;;7.04;100.00
19086;BME280;9675;51.538;6.728;2023-02-16T02:12:33;102077.66;;;7.01;100.00
19086;BME280;9675;51.538;6.728;2023-02-16T02:15:00;102078.94;;;6.96;100.00
19086;BME280;9675;51.538;6.728;2023-02-16T02:17:28;102073.56;;;6.93;100.00
19086;BME280;9675;51.538;6.728;2023-02-16T02:20:05;102062.16;;;6.90;100.00
19086;BME280;9675;51.538;6.728;2023-02-16T02:23:22;102065.38;;;6.87;100.00
19086;BME280;9675;51.538;6.728;2023-02-16T02:27:06;102063.31;;;6.83;100.00
19086;BME280;9675;51.538;6.728;2023-02-16T02:30:17;102054.47;;;6.79;100.00
19086;BME280;9675;51.538;6.728;2023-02-16T02:33:07;102058.59;;;6.77;100.00
19086;BME280;9675;51.538;6.728;2023-02-16T02:35:50;102058.22;;;6.73;100.00
19086;BME280;9675;51.538;6.728;2023-02-16T02:38:26;102046.94;;;6.71;100.00
19086;BME280;9675;51.538;6.728;2023-02-16T02:41:11;102036.56;;;6.69;100.00
19086;BME280;9675;51.538;6.728;2023-02-16T02:43:49;102031.19;;;6.66;100.00
19086;BME280;9675;51.538;6.728;2023-02-16T02:46:24;102029.53;;;6.67;100.00
19086;BME280;9675;51.538;6.728;2023-02-16T02:48:52;102019.81;;;6.63;100.00
19086;BME280;9675;51.538;6.728;2023-02-16T02:51:19;102025.41;;;6.59;100.00
19086;BME280;9675;51.538;6.728;2023-02-16T02:54:04;102032.09;;;6.57;100.00
19086;BME280;9675;51.538;6.728;2023-02-16T02:57:07;102021.56;;;6.54;100.00
19086;BME280;9675;51.538;6.728;2023-02-16T03:00:00;102021.34;;;6.51;100.00
19086;BME280;9675;51.538;6.728;2023-02-16T03:02:57;102013.41;;;6.48;100.00
19086;BME280;9675;51.538;6.728;2023-02-16T03:05:28;102020.06;;;6.46;100.00
19086;BME280;9675;51.538;6.728;2023-02-16T03:08:03;102014.94;;;6.46;100.00
19086;BME280;9675;51.538;6.728;2023-02-16T03:10:42;102013.91;;;6.44;100.00
19086;BME280;9675;51.538;6.728;2023-02-16T03:13:32;102007.63;;;6.40;100.00
19086;BME280;9675;51.538;6.728;2023-02-16T03:16:07;102007.63;;;6.40;100.00
19086;BME280;9675;51.538;6.728;2023-02-16T03:18:37;102002.38;;;6.38;100.00
19086;BME280;9675;51.538;6.728;2023-02-16T03:21:25;101998.81;;;6.36;100.00
19086;BME280;9675;51.538;6.728;2023-02-16T03:24:15;102001.38;;;6.36;100.00
19086;BME280;9675;51.538;6.728;2023-02-16T03:27:02;102009.81;;;6.35;100.00
19086;BME280;9675;51.538;6.728;2023-02-16T03:29:50;102006.34;;;6.35;100.00
19086;BME280;9675;51.538;6.728;2023-02-16T03:32:20;102018.25;;;6.34;100.00
19086;BME280;9675;51.538;6.728;2023-02-16T03:34:48;102006.09;;;6.32;100.00
19086;BME280;9675;51.538;6.728;2023-02-16T03:37:15;102008.53;;;6.30;100.00
19086;BME280;9675;51.538;6.728;2023-02-16T03:39:43;102014.41;;;6.29;100.00
19086;BME280;9675;51.538;6.728;2023-02-16T03:42:27;102013.34;;;6.27;100.00
19086;BME280;9675;51.538;6.728;2023-02-16T03:44:54;102019.25;;;6.26;100.00
19086;BME280;9675;51.538;6.728;2023-02-16T03:47:23;102022.44;;;6.24;100.00
19086;BME280;9675;51.538;6.728;2023-02-16T03:49:50;102017.47;;;6.25;100.00
19086;BME280;9675;51.538;6.728;2023-02-16T03:52:17;102021.69;;;6.25;100.00
19086;BME280;9675;51.538;6.728;2023-02-16T03:54:44;102020.78;;;6.24;100.00
19086;BME280;9675;51.538;6.728;2023-02-16T03:57:11;102017.31;;;6.24;100.00
19086;BME280;9675;51.538;6.728;2023-02-16T03:59:38;102016.44;;;6.23;100.00
19086;BME280;9675;51.538;6.728;2023-02-16T04:02:05;102020.78;;;6.24;100.00
19086;BME280;9675;51.538;6.728;2023-02-16T04:04:33;102004.69;;;6.25;100.00
19086;BME280;9675;51.538;6.728;2023-02-16T04:07:00;102011.31;;;6.23;100.00
19086;BME280;9675;51.538;6.728;2023-02-16T04:09:27;102012.06;;;6.22;100.00
19086;BME280;9675;51.538;6.728;2023-02-16T04:11:54;102007.09;;;6.24;100.00
19086;BME280;9675;51.538;6.728;2023-02-16T04:14:39;102000.06;;;6.21;100.00
19086;BME280;9675;51.538;6.728;2023-02-16T04:17:06;102001.34;;;6.16;100.00
19086;BME280;9675;51.538;6.728;2023-02-16T04:19:34;102007.22;;;6.15;100.00
19086;BME280;9675;51.538;6.728;2023-02-16T04:22:01;102000.06;;;6.11;100.00
19086;BME280;9675;51.538;6.728;2023-02-16T04:24:28;102005.94;;;6.10;100.00
19086;BME280;9675;51.538;6.728;2023-02-16T04:26:55;102004.28;;;6.11;100.00
19086;BME280;9675;51.538;6.728;2023-02-16T04:29:22;102009.25;;;6.09;100.00
19086;BME280;9675;51.538;6.728;2023-02-16T04:31:49;102018.72;;;6.10;100.00
19086;BME280;9675;51.538;6.728;2023-02-16T04:34:18;102021.28;;;6.10;100.00
19086;BME280;9675;51.538;6.728;2023-02-16T04:36:46;102010.00;;;6.08;100.00
19086;BME280;9675;51.538;6.728;2023-02-16T04:39:14;102008.19;;;6.07;100.00
19086;BME280;9675;51.538;6.728;2023-02-16T04:41:41;102010.66;;;6.06;100.00
19086;BME280;9675;51.538;6.728;2023-02-16T04:44:08;102008.72;;;6.03;100.00
19086;BME280;9675;51.538;6.728;2023-02-16T04:46:35;102018.19;;;6.04;100.00
19086;BME280;9675;51.538;6.728;2023-02-16T04:49:02;102009.47;;;6.02;100.00
19086;BME280;9675;51.538;6.728;2023-02-16T04:51:29;102009.47;;;6.02;100.00
19086;BME280;9675;51.538;6.728;2023-02-16T04:53:57;102001.69;;;6.01;100.00
19086;BME280;9675;51.538;6.728;2023-02-16T04:56:24;102004.34;;;6.02;100.00
19086;BME280;9675;51.538;6.728;2023-02-16T04:58:53;101998.34;;;6.02;100.00
19086;BME280;9675;51.538;6.728;2023-02-16T05:01:24;101991.31;;;5.99;100.00
19086;BME280;9675;51.538;6.728;2023-02-16T05:03:51;101990.28;;;5.97;100.00
19086;BME280;9675;51.538;6.728;2023-02-16T05:06:20;101998.72;;;5.96;100.00
19086;BME280;9675;51.538;6.728;2023-02-16T05:08:47;102014.94;;;5.96;100.00
19086;BME280;9675;51.538;6.728;2023-02-16T05:11:16;101997.72;;;5.94;100.00
19086;BME280;9675;51.538;6.728;2023-02-16T05:14:01;101996.66;;;5.92;100.00
19086;BME280;9675;51.538;6.728;2023-02-16T05:16:45;102005.09;;;5.91;100.00
19086;BME280;9675;51.538;6.728;2023-02-16T05:19:12;102003.31;;;5.90;100.00
19086;BME280;9675;51.538;6.728;2023-02-16T05:21:40;102004.97;;;5.89;100.00
19086;BME280;9675;51.538;6.728;2023-02-16T05:24:09;102004.09;;;5.89;100.00
19086;BME280;9675;51.538;6.728;2023-02-16T05:26:38;102004.09;;;5.89;100.00
19086;BME280;9675;51.538;6.728;2023-02-16T05:29:06;102008.00;;;5.85;100.00
19086;BME280;9675;51.538;6.728;2023-02-16T05:31:33;102023.50;;;5.87;100.00
19086;BME280;9675;51.538;6.728;2023-02-16T05:34:00;102008.75;;;5.84;100.00
19086;BME280;9675;51.538;6.728;2023-02-16T05:36:27;102018.22;;;5.85;100.00
19086;BME280;9675;51.538;6.728;2023-02-16T05:38:54;102030.13;;;5.85;100.00
19086;BME280;9675;51.538;6.728;2023-02-16T05:41:21;102016.28;;;5.83;100.00
19086;BME280;9675;51.538;6.728;2023-02-16T05:43:56;102024.72;;;5.82;100.00
19086;BME280;9675;51.538;6.728;2023-02-16T05:46:25;102021.25;;;5.81;100.00
19086;BME280;9675;51.538;6.728;2023-02-16T05:48:53;102007.31;;;5.78;100.00
19086;BME280;9675;51.538;6.728;2023-02-16T05:51:21;102015.13;;;5.79;100.00
19086;BME280;9675;51.538;6.728;2023-02-16T05:53:48;102004.91;;;5.79;100.00
19086;BME280;9675;51.538;6.728;2023-02-16T05:56:16;101998.91;;;5.79;100.00
19086;BME280;9675;51.538;6.728;2023-02-16T05:58:43;102003.88;;;5.77;100.00
19086;BME280;9675;51.538;6.728;2023-02-16T06:01:12;102006.28;;;5.76;100.00
19086;BME280;9675;51.538;6.728;2023-02-16T06:03:40;102008.84;;;5.76;100.00
19086;BME280;9675;51.538;6.728;2023-02-16T06:06:07;101998.63;;;5.76;100.00
19086;BME280;9675;51.538;6.728;2023-02-16T06:08:35;101999.41;;;5.75;100.00
19086;BME280;9675;51.538;6.728;2023-02-16T06:11:03;102001.19;;;5.76;100.00
19086;BME280;9675;51.538;6.728;2023-02-16T06:13:51;102007.94;;;5.75;100.00
19086;BME280;9675;51.538;6.728;2023-02-16T06:16:24;101993.50;;;5.76;100.00
19086;BME280;9675;51.538;6.728;2023-02-16T06:18:52;101985.72;;;5.74;100.00
19086;BME280;9675;51.538;6.728;2023-02-16T06:21:20;101983.28;;;5.76;100.00
19086;BME280;9675;51.538;6.728;2023-02-16T06:23:47;101992.00;;;5.78;100.00
19086;BME280;9675;51.538;6.728;2023-02-16T06:26:15;101991.09;;;5.77;100.00
19086;BME280;9675;51.538;6.728;2023-02-16T06:28:42;101997.09;;;5.78;100.00
19086;BME280;9675;51.538;6.728;2023-02-16T06:31:09;101996.22;;;5.77;100.00
19086;BME280;9675;51.538;6.728;2023-02-16T06:33:38;101997.09;;;5.78;100.00
19086;BME280;9675;51.538;6.728;2023-02-16T06:36:06;101997.09;;;5.78;100.00
19086;BME280;9675;51.538;6.728;2023-02-16T06:38:33;102005.53;;;5.77;100.00
19086;BME280;9675;51.538;6.728;2023-02-16T06:41:01;102001.31;;;5.77;100.00
19086;BME280;9675;51.538;6.728;2023-02-16T06:43:28;102004.91;;;5.79;100.00
19086;BME280;9675;51.538;6.728;2023-02-16T06:45:55;102005.03;;;5.81;100.00
19086;BME280;9675;51.538;6.728;2023-02-16T06:48:22;102000.69;;;5.80;100.00
19086;BME280;9675;51.538;6.728;2023-02-16T06:50:51;101998.16;;;5.80;100.00
19086;BME280;9675;51.538;6.728;2023-02-16T06:53:18;102000.69;;;5.80;100.00
19086;BME280;9675;51.538;6.728;2023-02-16T06:55:48;101993.03;;;5.80;100.00
19086;BME280;9675;51.538;6.728;2023-02-16T06:58:15;101990.47;;;5.80;100.00
19086;BME280;9675;51.538;6.728;2023-02-16T07:00:42;101990.47;;;5.80;100.00
19086;BME280;9675;51.538;6.728;2023-02-16T07:03:09;101996.59;;;5.82;100.00
19086;BME280;9675;51.538;6.728;2023-02-16T07:05:36;101999.16;;;5.82;100.00
19086;BME280;9675;51.538;6.728;2023-02-16T07:08:05;102006.81;;;5.82;100.00
19086;BME280;9675;51.538;6.728;2023-02-16T07:10:33;102006.06;;;5.83;100.00
19086;BME280;9675;51.538;6.728;2023-02-16T07:13:00;101988.19;;;5.83;100.00
19086;BME280;9675;51.538;6.728;2023-02-16T07:15:27;101986.78;;;5.86;100.00
19086;BME280;9675;51.538;6.728;2023-02-16T07:17:54;101993.53;;;5.86;100.00
19086;BME280;9675;51.538;6.728;2023-02-16T07:20:21;101994.63;;;5.88;100.00
19086;BME280;9675;51.538;6.728;2023-02-16T07:22:48;102007.22;;;5.86;100.00
19086;BME280;9675;51.538;6.728;2023-02-16T07:25:17;102012.66;;;5.89;100.00
19086;BME280;9675;51.538;6.728;2023-02-16T07:27:44;102000.78;;;5.90;100.00
19086;BME280;9675;51.538;6.728;2023-02-16T07:30:12;102008.44;;;5.90;100.00
19086;BME280;9675;51.538;6.728;2023-02-16T07:32:41;102003.44;;;5.91;100.00
19086;BME280;9675;51.538;6.728;2023-02-16T07:35:08;102016.09;;;5.90;100.00
19086;BME280;9675;51.538;6.728;2023-02-16T07:37:35;102018.66;;;5.90;100.00
19086;BME280;9675;51.538;6.728;2023-02-16T07:43:39;102029.78;;;5.90;100.00
19086;BME280;9675;51.538;6.728;2023-02-16T07:46:07;102036.66;;;5.91;100.00
19086;BME280;9675;51.538;6.728;2023-02-16T07:48:35;102028.88;;;5.90;100.00
19086;BME280;9675;51.538;6.728;2023-02-16T07:51:02;102031.69;;;5.93;100.00
19086;BME280;9675;51.538;6.728;2023-02-16T07:53:29;102034.41;;;5.94;100.00
19086;BME280;9675;51.538;6.728;2023-02-16T07:55:56;102019.81;;;5.93;100.00
19086;BME280;9675;51.538;6.728;2023-02-16T07:58:23;102018.16;;;5.94;100.00
19086;BME280;9675;51.538;6.728;2023-02-16T08:00:55;102014.69;;;5.93;100.00
19086;BME280;9675;51.538;6.728;2023-02-16T08:03:30;102018.28;;;5.95;100.00
19086;BME280;9675;51.538;6.728;2023-02-16T08:05:59;102014.19;;;5.97;100.00
19086;BME280;9675;51.538;6.728;2023-02-16T08:08:26;102014.06;;;5.96;100.00
19086;BME280;9675;51.538;6.728;2023-02-16T08:10:53;102026.34;;;6.00;100.00
19086;BME280;9675;51.538;6.728;2023-02-16T08:13:21;102019.69;;;6.02;100.00
19086;BME280;9675;51.538;6.728;2023-02-16T08:15:48;102013.69;;;6.02;100.00
19086;BME280;9675;51.538;6.728;2023-02-16T08:18:16;102029.31;;;6.05;100.00
19086;BME280;9675;51.538;6.728;2023-02-16T08:20:43;102030.22;;;6.05;100.00
19086;BME280;9675;51.538;6.728;2023-02-16T08:23:10;102026.09;;;6.07;100.00
19086;BME280;9675;51.538;6.728;2023-02-16T08:25:37;102027.16;;;6.09;100.00
19086;BME280;9675;51.538;6.728;2023-02-16T08:28:04;102031.50;;;6.10;100.00
19086;BME280;9675;51.538;6.728;2023-02-16T08:30:32;102030.75;;;6.11;100.00
19086;BME280;9675;51.538;6.728;2023-02-16T08:33:00;102024.84;;;6.12;100.00
19086;BME280;9675;51.538;6.728;2023-02-16T08:35:36;102029.34;;;6.15;100.00
19086;BME280;9675;51.538;6.728;2023-02-16T08:38:03;102024.38;;;6.16;100.00
19086;BME280;9675;51.538;6.728;2023-02-16T08:40:32;102021.91;;;6.18;100.00
19086;BME280;9675;51.538;6.728;2023-02-16T08:42:59;102016.78;;;6.18;100.00
19086;BME280;9675;51.538;6.728;2023-02-16T08:45:26;102017.06;;;6.21;100.00
19086;BME280;9675;51.538;6.728;2023-02-16T08:47:54;102021.28;;;6.20;100.00
19086;BME280;9675;51.538;6.728;2023-02-16T08:50:22;102019.75;;;6.22;100.00
19086;BME280;9675;51.538;6.728;2023-02-16T08:52:50;102021.81;;;6.26;100.00
19086;BME280;9675;51.538;6.728;2023-02-16T08:55:18;102027.94;;;6.28;100.00
19086;BME280;9675;51.538;6.728;2023-02-16T08:57:45;102023.88;;;6.30;100.00
19086;BME280;9675;51.538;6.728;2023-02-16T09:00:14;102025.91;;;6.34;100.00
19086;BME280;9675;51.538;6.728;2023-02-16T09:02:59;102036.28;;;6.36;100.00
19086;BME280;9675;51.538;6.728;2023-02-16T09:05:27;102028.84;;;6.39;100.00
19086;BME280;9675;51.538;6.728;2023-02-16T09:07:55;102030.78;;;6.42;100.00
19086;BME280;9675;51.538;6.728;2023-02-16T09:10:22;102035.13;;;6.43;100.00
19086;BME280;9675;51.538;6.728;2023-02-16T09:12:49;102034.63;;;6.47;100.00
19086;BME280;9675;51.538;6.728;2023-02-16T09:15:16;102037.44;;;6.50;100.00
19086;BME280;9675;51.538;6.728;2023-02-16T09:17:43;102031.56;;;6.51;100.00
19086;BME280;9675;51.538;6.728;2023-02-16T09:20:11;102029.25;;;6.54;100.00
19086;BME280;9675;51.538;6.728;2023-02-16T09:22:38;102037.22;;;6.57;100.00
19086;BME280;9675;51.538;6.728;2023-02-16T09:25:08;102035.78;;;6.60;100.00
19086;BME280;9675;51.538;6.728;2023-02-16T09:27:36;102041.16;;;6.63;100.00
19086;BME280;9675;51.538;6.728;2023-02-16T09:30:04;102047.44;;;6.67;100.00
19086;BME280;9675;51.538;6.728;2023-02-16T09:32:31;102047.56;;;6.68;100.00
19086;BME280;9675;51.538;6.728;2023-02-16T09:34:59;102039.25;;;6.71;100.00
19086;BME280;9675;51.538;6.728;2023-02-16T09:37:26;102039.50;;;6.74;100.00
19086;BME280;9675;51.538;6.728;2023-02-16T09:39:53;102038.88;;;6.76;100.00
19086;BME280;9675;51.538;6.728;2023-02-16T09:42:31;102052.56;;;6.77;100.00
19086;BME280;9675;51.538;6.728;2023-02-16T09:45:06;102061.53;;;6.82;100.00
19086;BME280;9675;51.538;6.728;2023-02-16T09:47:39;102067.66;;;6.84;100.00
19086;BME280;9675;51.538;6.728;2023-02-16T09:50:16;102074.56;;;6.85;100.00
19086;BME280;9675;51.538;6.728;2023-02-16T09:52:52;102061.00;;;6.86;100.00
19086;BME280;9675;51.538;6.728;2023-02-16T09:55:20;102067.41;;;6.91;100.00
19086;BME280;9675;51.538;6.728;2023-02-16T09:58:00;102076.88;;;6.92;100.00
19086;BME280;9675;51.538;6.728;2023-02-16T10:00:48;102071.13;;;6.95;100.00
19086;BME280;9675;51.538;6.728;2023-02-16T10:03:42;102072.28;;;6.98;100.00
19086;BME280;9675;51.538;6.728;2023-02-16T10:06:29;102065.50;;;6.99;100.00
19086;BME280;9675;51.538;6.728;2023-02-16T10:09:05;102063.84;;;6.99;100.00
19086;BME280;9675;51.538;6.728;2023-02-16T10:11:38;102070.72;;;7.00;100.00
19086;BME280;9675;51.538;6.728;2023-02-16T10:14:22;102062.28;;;7.01;100.00
19086;BME280;9675;51.538;6.728;2023-02-16T10:16:56;102063.44;;;7.05;100.00
19086;BME280;9675;51.538;6.728;2023-02-16T10:19:36;102063.56;;;7.06;100.00
19086;BME280;9675;51.538;6.728;2023-02-16T10:22:12;102064.59;;;7.08;100.00
19086;BME280;9675;51.538;6.728;2023-02-16T10:24:51;102075.84;;;7.10;100.00
19086;BME280;9675;51.538;6.728;2023-02-16T10:27:21;102072.66;;;7.13;100.00
19086;BME280;9675;51.538;6.728;2023-02-16T10:29:55;102076.13;;;7.13;100.00
19086;BME280;9675;51.538;6.728;2023-02-16T10:32:26;102066.88;;;7.15;100.00
19086;BME280;9675;51.538;6.728;2023-02-16T10:35:08;102063.56;;;7.16;100.00
19086;BME280;9675;51.538;6.728;2023-02-16T10:37:57;102068.16;;;7.20;100.00
19086;BME280;9675;51.538;6.728;2023-02-16T10:40:48;102075.19;;;7.23;100.00
19086;BME280;9675;51.538;6.728;2023-02-16T10:43:23;102070.22;;;7.24;100.00
19086;BME280;9675;51.538;6.728;2023-02-16T10:45:55;102065.34;;;7.28;100.00
19086;BME280;9675;51.538;6.728;2023-02-16T10:48:24;102069.03;;;7.31;100.00
19086;BME280;9675;51.538;6.728;2023-02-16T10:50:56;102061.63;;;7.34;100.00
19086;BME280;9675;51.538;6.728;2023-02-16T10:53:35;102061.75;;;7.36;100.00
19086;BME280;9675;51.538;6.728;2023-02-16T10:56:38;102053.25;;;7.37;100.00
19086;BME280;9675;51.538;6.728;2023-02-16T10:59:15;102050.22;;;7.41;100.00
19086;BME280;9675;51.538;6.728;2023-02-16T11:01:47;102050.94;;;7.50;100.00
19086;BME280;9675;51.538;6.728;2023-02-16T11:04:46;102047.22;;;7.56;100.00
19086;BME280;9675;51.538;6.728;2023-02-16T11:07:16;102042.50;;;7.51;100.00
19086;BME280;9675;51.538;6.728;2023-02-16T11:09:46;102047.09;;;7.55;100.00
19086;BME280;9675;51.538;6.728;2023-02-16T11:12:23;102046.16;;;7.64;100.00
19086;BME280;9675;51.538;6.728;2023-02-16T11:14:54;102044.72;;;7.68;100.00
19086;BME280;9675;51.538;6.728;2023-02-16T11:17:24;102030.59;;;7.73;100.00
19086;BME280;9675;51.538;6.728;2023-02-16T11:19:55;102041.88;;;7.75;100.00
19086;BME280;9675;51.538;6.728;2023-02-16T11:22:29;102017.28;;;7.77;100.00
19086;BME280;9675;51.538;6.728;2023-02-16T11:25:19;102017.28;;;7.77;100.00
19086;BME280;9675;51.538;6.728;2023-02-16T11:27:54;102009.69;;;7.79;100.00
19086;BME280;9675;51.538;6.728;2023-02-16T11:30:32;102007.25;;;7.80;100.00
19086;BME280;9675;51.538;6.728;2023-02-16T11:33:03;102013.41;;;7.82;100.00
19086;BME280;9675;51.538;6.728;2023-02-16T11:35:41;102016.06;;;7.84;100.00
19086;BME280;9675;51.538;6.728;2023-02-16T11:38:27;102020.44;;;7.85;100.00
19086;BME280;9675;51.538;6.728;2023-02-16T11:40:55;102019.00;;;7.88;100.00
19086;BME280;9675;51.538;6.728;2023-02-16T11:43:32;102013.09;;;7.89;100.00
19086;BME280;9675;51.538;6.728;2023-02-16T11:46:04;102014.88;;;7.90;100.00
19086;BME280;9675;51.538;6.728;2023-02-16T11:48:34;102017.22;;;7.87;100.00
19086;BME280;9675;51.538;6.728;2023-02-16T11:51:07;102000.75;;;7.95;100.00
19086;BME280;9675;51.538;6.728;2023-02-16T11:53:38;102000.00;;;7.96;100.00
19086;BME280;9675;51.538;6.728;2023-02-16T11:56:23;101993.06;;;7.95;100.00
19086;BME280;9675;51.538;6.728;2023-02-16T11:59:12;101997.97;;;7.92;100.00
19086;BME280;9675;51.538;6.728;2023-02-16T12:02:01;101995.09;;;7.99;100.00
19086;BME280;9675;51.538;6.728;2023-02-16T12:05:02;101997.53;;;7.98;100.00
19086;BME280;9675;51.538;6.728;2023-02-16T12:07:43;101991.75;;;8.00;100.00
19086;BME280;9675;51.538;6.728;2023-02-16T12:10:21;101995.34;;;8.02;100.00
19086;BME280;9675;51.538;6.728;2023-02-16T12:13:00;101998.31;;;7.97;100.00
19086;BME280;9675;51.538;6.728;2023-02-16T12:15:38;102003.69;;;8.00;100.00
19086;BME280;9675;51.538;6.728;2023-02-16T12:18:26;102008.94;;;8.01;100.00
19086;BME280;9675;51.538;6.728;2023-02-16T12:21:08;102004.81;;;8.03;100.00
19086;BME280;9675;51.538;6.728;2023-02-16T12:23:42;102006.31;;;8.11;100.00
19086;BME280;9675;51.538;6.728;2023-02-16T12:26:39;102008.31;;;8.16;100.00
19086;BME280;9675;51.538;6.728;2023-02-16T12:29:38;101999.75;;;8.15;100.00
19086;BME280;9675;51.538;6.728;2023-02-16T12:32:44;102003.56;;;8.20;100.00
19086;BME280;9675;51.538;6.728;2023-02-16T12:35:34;102008.13;;;8.24;100.00
19086;BME280;9675;51.538;6.728;2023-02-16T12:38:19;102003.13;;;8.26;100.00
19086;BME280;9675;51.538;6.728;2023-02-16T12:41:04;102007.50;;;8.27;100.00
19086;BME280;9675;51.538;6.728;2023-02-16T12:43:38;102010.19;;;8.28;100.00
19086;BME280;9675;51.538;6.728;2023-02-16T12:46:17;102000.19;;;8.31;100.00
19086;BME280;9675;51.538;6.728;2023-02-16T12:48:51;101994.41;;;8.34;100.00
19086;BME280;9675;51.538;6.728;2023-02-16T12:51:29;101997.06;;;8.35;100.00
19086;BME280;9675;51.538;6.728;2023-02-16T12:54:07;102000.78;;;8.39;100.00
19086;BME280;9675;51.538;6.728;2023-02-16T12:56:41;101991.63;;;8.42;100.00
19086;BME280;9675;51.538;6.728;2023-02-16T12:59:18;101987.53;;;8.44;100.00
19086;BME280;9675;51.538;6.728;2023-02-16T13:01:51;101984.28;;;8.47;100.00
19086;BME280;9675;51.538;6.728;2023-02-16T13:04:37;101986.06;;;8.48;100.00
19086;BME280;9675;51.538;6.728;2023-02-16T13:07:15;101988.88;;;8.51;100.00
19086;BME280;9675;51.538;6.728;2023-02-16T13:09:55;101975.25;;;8.52;100.00
19086;BME280;9675;51.538;6.728;2023-02-16T13:12:30;101966.91;;;8.55;100.00
19086;BME280;9675;51.538;6.728;2023-02-16T13:15:08;101958.31;;;8.54;100.00
19086;BME280;9675;51.538;6.728;2023-02-16T13:17:42;101952.63;;;8.58;100.00
19086;BME280;9675;51.538;6.728;2023-02-16T13:20:14;101957.88;;;8.60;100.00
19086;BME280;9675;51.538;6.728;2023-02-16T13:23:33;101950.53;;;8.64;100.00
19086;BME280;9675;51.538;6.728;2023-02-16T13:26:43;101942.03;;;8.65;100.00
19086;BME280;9675;51.538;6.728;2023-02-16T13:32:55;101924.28;;;8.68;100.00
19086;BME280;9675;51.538;6.728;2023-02-16T13:39:00;101935.56;;;8.70;100.00
19086;BME280;9675;51.538;6.728;2023-02-16T13:44:34;101916.78;;;8.71;100.00
19086;BME280;9675;51.538;6.728;2023-02-16T13:47:05;101894.03;;;8.76;100.00
19086;BME280;9675;51.538;6.728;2023-02-16T13:49:40;101889.78;;;8.76;100.00